Time;durP1;ratioP1;P1;durP2;ratioP2;P2;SDS_P1;SDS_P2;PMS_P1;PMS_P2;Temp;Humidity;BMP_temperature;BMP_pressure;BME280_temperature;BME280_humidity;BME280_pressure;Samples;Min_cycle;Max_cycle;Signal;HPM_P1;HPM_P2
2021/07/28 00:01:32;;;;;;;8.65;7.80;;;20.00;99.90;;;;;;5075153;28;20630;-64
2021/07/28 00:04:00;;;;;;;9.32;7.78;;;20.00;99.90;;;;;;5074945;28;20201;-65
2021/07/28 00:06:29;;;;;;;10.55;7.72;;;20.00;99.90;;;;;;5077174;28;20203;-65
2021/07/28 00:08:57;;;;;;;7.78;7.07;;;20.10;99.90;;;;;;5077789;28;20303;-64
2021/07/28 00:11:25;;;;;;;8.25;7.50;;;20.10;99.90;;;;;;5076611;28;20228;-64
2021/07/28 00:13:53;;;;;;;9.55;7.63;;;20.10;99.90;;;;;;5074626;28;20240;-64
2021/07/28 00:16:21;;;;;;;8.45;7.25;;;20.10;99.90;;;;;;5074969;28;20197;-63
2021/07/28 00:19:00;;;;;;;7.85;7.10;;;20.10;99.90;;;;;;5074945;28;20204;-63
2021/07/28 00:24:13;;;;;;;7.70;6.93;;;20.10;99.90;;;;;;5074476;28;20720;-65
2021/07/28 00:26:41;;;;;;;8.98;7.10;;;20.00;99.90;;;;;;5074527;28;20235;-64
2021/07/28 00:29:10;;;;;;;7.75;7.05;;;20.00;99.90;;;;;;5074486;28;20254;-63
2021/07/28 00:31:38;;;;;;;9.77;8.13;;;20.00;99.90;;;;;;5074392;28;20207;-65
2021/07/28 00:34:07;;;;;;;10.05;7.85;;;20.00;99.90;;;;;;5074697;28;20224;-66
2021/07/28 00:36:35;;;;;;;8.23;6.93;;;20.00;99.90;;;;;;5074129;28;20197;-67
2021/07/28 00:39:03;;;;;;;9.55;7.35;;;20.00;99.90;;;;;;5074163;28;20841;-64
2021/07/28 00:41:31;;;;;;;9.82;7.80;;;20.00;99.90;;;;;;5074533;28;20213;-66
2021/07/28 00:43:59;;;;;;;8.52;7.72;;;20.00;99.90;;;;;;5074212;28;20264;-65
2021/07/28 00:46:26;;;;;;;8.20;7.38;;;20.10;99.90;;;;;;5074504;28;20200;-65
2021/07/28 00:48:54;;;;;;;11.55;7.90;;;20.10;99.90;;;;;;5074086;28;20205;-65
2021/07/28 00:51:24;;;;;;;9.15;8.25;;;20.10;99.90;;;;;;5074287;28;20230;-65
2021/07/28 00:53:51;;;;;;;8.57;7.70;;;20.10;99.90;;;;;;5073821;28;20645;-66
2021/07/28 00:56:20;;;;;;;9.38;8.50;;;20.10;99.90;;;;;;5074182;28;20231;-65
2021/07/28 00:58:48;;;;;;;8.82;8.02;;;20.10;99.90;;;;;;5074060;28;20201;-66
2021/07/28 01:01:16;;;;;;;9.00;8.18;;;20.30;99.90;;;;;;5073885;28;20691;-65
2021/07/28 01:03:44;;;;;;;10.68;8.82;;;20.20;99.90;;;;;;5074037;28;20684;-65
2021/07/28 01:06:12;;;;;;;9.32;8.20;;;20.20;99.90;;;;;;5074145;28;20220;-64
2021/07/28 01:08:42;;;;;;;11.45;8.65;;;20.10;99.90;;;;;;5073711;28;20196;-65
2021/07/28 01:11:09;;;;;;;11.27;9.20;;;20.10;99.90;;;;;;5073896;28;20219;-65
2021/07/28 01:13:37;;;;;;;13.18;9.90;;;20.00;99.90;;;;;;5073991;28;20211;-64
2021/07/28 01:16:10;;;;;;;12.82;9.57;;;20.00;99.90;;;;;;5073749;28;20635;-65
2021/07/28 01:18:39;;;;;;;16.27;10.10;;;19.80;99.90;;;;;;5073494;28;20181;-66
2021/07/28 01:21:07;;;;;;;11.05;9.80;;;19.70;99.90;;;;;;5073742;28;20283;-64
2021/07/28 01:23:38;;;;;;;14.15;9.98;;;19.60;99.90;;;;;;5073201;28;20715;-64
2021/07/28 01:26:07;;;;;;;13.55;9.75;;;19.40;99.90;;;;;;5073517;28;20183;-64
2021/07/28 01:28:37;;;;;;;12.52;10.00;;;19.20;99.90;;;;;;5073103;28;20207;-64
2021/07/28 01:31:07;;;;;;;13.82;10.77;;;19.00;99.90;;;;;;5073443;28;20209;-63
2021/07/28 01:33:36;;;;;;;11.18;9.80;;;19.00;99.90;;;;;;5073258;28;20315;-63
2021/07/28 01:36:06;;;;;;;12.05;9.68;;;18.90;99.90;;;;;;5073441;28;20578;-64
2021/07/28 01:38:35;;;;;;;13.55;9.70;;;18.80;99.90;;;;;;5072880;28;20208;-64
2021/07/28 01:41:05;;;;;;;9.32;8.32;;;18.70;99.90;;;;;;5073193;28;20224;-63
2021/07/28 01:43:34;;;;;;;10.82;8.38;;;18.60;99.90;;;;;;5072562;28;20747;-65
2021/07/28 01:46:03;;;;;;;8.85;7.65;;;18.40;99.90;;;;;;5072901;28;20627;-64
2021/07/28 01:48:31;;;;;;;10.10;7.18;;;18.30;99.90;;;;;;5072043;28;20942;-65
2021/07/28 01:50:59;;;;;;;8.75;7.20;;;18.10;99.90;;;;;;5072977;28;20255;-65
2021/07/28 01:53:28;;;;;;;8.77;7.47;;;18.00;99.90;;;;;;5072455;28;20736;-63
2021/07/28 01:55:57;;;;;;;8.52;7.57;;;18.00;99.90;;;;;;5072787;28;20197;-64
2021/07/28 01:58:27;;;;;;;8.93;7.72;;;17.90;99.90;;;;;;5072346;28;20664;-65
2021/07/28 02:00:55;;;;;;;9.95;7.28;;;17.90;99.90;;;;;;5072803;28;20201;-64
2021/07/28 02:03:23;;;;;;;8.75;7.50;;;17.90;99.90;;;;;;5072851;28;20204;-65
2021/07/28 02:05:51;;;;;;;8.02;7.22;;;17.90;99.90;;;;;;5072410;28;20201;-65
2021/07/28 02:08:19;;;;;;;9.65;7.15;;;17.80;99.90;;;;;;5072643;28;20288;-63
2021/07/28 02:10:49;;;;;;;9.13;7.20;;;17.90;99.90;;;;;;5072590;28;20303;-66
2021/07/28 02:13:18;;;;;;;8.55;6.80;;;17.80;99.90;;;;;;5072445;28;20255;-64
2021/07/28 02:15:48;;;;;;;8.43;7.63;;;17.80;99.90;;;;;;5072516;28;20285;-65
2021/07/28 02:18:16;;;;;;;8.20;7.35;;;17.80;99.90;;;;;;5072538;28;20207;-64
2021/07/28 02:20:44;;;;;;;10.55;7.63;;;17.80;99.90;;;;;;5072281;28;20212;-64
2021/07/28 02:23:12;;;;;;;11.32;7.63;;;17.80;99.90;;;;;;5072117;28;20197;-64
2021/07/28 02:25:40;;;;;;;9.48;7.90;;;17.90;99.90;;;;;;5072337;28;20200;-63
2021/07/28 02:28:08;;;;;;;8.40;7.60;;;18.00;99.90;;;;;;5072522;28;20223;-64
2021/07/28 02:30:35;;;;;;;9.07;7.95;;;18.00;99.90;;;;;;5072082;28;20311;-64
2021/07/28 02:33:08;;;;;;;10.05;7.90;;;18.00;99.90;;;;;;5072417;28;20607;-65
2021/07/28 02:35:36;;;;;;;8.80;7.38;;;17.90;99.90;;;;;;5072003;28;20296;-64
2021/07/28 02:38:04;;;;;;;12.57;7.88;;;17.80;99.90;;;;;;5072112;28;20201;-64
2021/07/28 02:40:32;;;;;;;9.05;7.60;;;17.80;99.90;;;;;;5072256;28;20587;-63
2021/07/28 02:42:59;;;;;;;10.50;7.82;;;17.80;99.90;;;;;;5071935;28;20221;-64
2021/07/28 02:45:27;;;;;;;8.30;7.45;;;17.80;99.90;;;;;;5072172;28;20276;-63
2021/07/28 02:47:55;;;;;;;11.40;7.65;;;17.80;99.90;;;;;;5071902;28;20228;-63
2021/07/28 02:50:24;;;;;;;9.13;7.97;;;17.70;99.90;;;;;;5071749;28;20200;-64
2021/07/28 02:52:52;;;;;;;9.65;7.90;;;17.70;99.90;;;;;;5071948;28;20207;-65
2021/07/28 02:55:20;;;;;;;8.70;7.78;;;17.70;99.90;;;;;;5072076;28;20211;-64
2021/07/28 02:57:48;;;;;;;10.25;7.50;;;17.70;99.90;;;;;;5071948;28;20200;-64
2021/07/28 03:00:16;;;;;;;9.35;8.32;;;17.70;99.90;;;;;;5077133;28;20303;-64
2021/07/28 03:02:44;;;;;;;9.80;7.90;;;17.80;99.90;;;;;;5078713;28;20200;-64
2021/07/28 03:05:14;;;;;;;8.85;7.93;;;17.80;99.90;;;;;;5078689;28;20274;-64
2021/07/28 03:07:43;;;;;;;9.38;7.68;;;17.80;99.90;;;;;;5078532;28;20203;-64
2021/07/28 03:10:12;;;;;;;8.00;6.95;;;17.80;99.90;;;;;;5078498;28;20295;-64
2021/07/28 03:12:40;;;;;;;9.48;7.47;;;17.80;99.90;;;;;;5078232;28;20303;-63
2021/07/28 03:15:08;;;;;;;9.48;8.10;;;17.80;99.90;;;;;;5078434;28;20207;-64
2021/07/28 03:17:36;;;;;;;8.40;7.50;;;17.90;99.90;;;;;;5078545;28;20210;-63
2021/07/28 03:20:04;;;;;;;8.32;7.53;;;17.70;99.90;;;;;;5078350;28;20664;-65
2021/07/28 03:22:33;;;;;;;8.63;7.82;;;17.70;99.90;;;;;;5078336;28;20291;-65
2021/07/28 03:25:03;;;;;;;8.77;7.90;;;17.70;99.90;;;;;;5078474;28;20212;-64
2021/07/28 03:27:31;;;;;;;9.13;7.70;;;17.70;99.90;;;;;;5078154;28;20204;-64
2021/07/28 03:29:59;;;;;;;8.43;7.63;;;17.80;99.90;;;;;;5078049;28;20201;-64
2021/07/28 03:32:27;;;;;;;8.70;7.40;;;17.70;99.90;;;;;;5078353;28;20303;-65
2021/07/28 03:34:55;;;;;;;10.65;7.63;;;17.70;99.90;;;;;;5078303;28;20292;-64
2021/07/28 03:37:22;;;;;;;8.93;7.57;;;17.80;99.90;;;;;;5078374;28;20295;-63
2021/07/28 03:40:00;;;;;;;9.43;8.40;;;17.80;99.90;;;;;;5078294;28;20558;-64
2021/07/28 03:42:29;;;;;;;9.05;8.15;;;17.80;99.90;;;;;;5078348;28;20181;-64
2021/07/28 03:44:57;;;;;;;10.90;8.23;;;17.80;99.90;;;;;;5077780;28;20684;-66
2021/07/28 03:47:25;;;;;;;8.57;7.53;;;17.80;99.90;;;;;;5078044;28;20236;-66
2021/07/28 03:49:54;;;;;;;8.90;7.97;;;17.80;99.90;;;;;;5078214;28;20204;-64
2021/07/28 03:52:22;;;;;;;11.57;8.13;;;17.80;99.90;;;;;;5078062;28;20223;-64
2021/07/28 03:54:51;;;;;;;12.20;8.80;;;17.90;99.90;;;;;;5078144;28;20291;-64
2021/07/28 03:57:19;;;;;;;9.27;7.82;;;17.90;99.90;;;;;;5078184;28;20299;-64
2021/07/28 03:59:48;;;;;;;9.75;7.95;;;18.00;99.90;;;;;;5078048;28;20301;-64
2021/07/28 04:02:16;;;;;;;11.63;8.30;;;18.00;99.90;;;;;;5078132;28;20203;-64
2021/07/28 04:04:44;;;;;;;10.82;8.60;;;17.90;99.90;;;;;;5077866;28;20664;-64
2021/07/28 04:07:12;;;;;;;10.30;8.07;;;17.90;99.90;;;;;;5078068;28;20203;-64
2021/07/28 04:09:40;;;;;;;11.27;9.30;;;18.00;99.90;;;;;;5078179;28;20291;-64
2021/07/28 04:12:08;;;;;;;10.20;8.70;;;18.00;99.90;;;;;;5073961;28;20220;-65
2021/07/28 04:14:36;;;;;;;10.18;8.13;;;18.00;99.90;;;;;;5074697;28;20200;-64
2021/07/28 04:17:06;;;;;;;9.90;8.88;;;18.10;99.90;;;;;;5074809;28;20197;-64
2021/07/28 04:19:33;;;;;;;9.60;8.15;;;18.10;99.90;;;;;;5074159;28;20211;-64
2021/07/28 04:22:01;;;;;;;10.63;8.80;;;18.10;99.90;;;;;;5074679;28;20201;-65
2021/07/28 04:24:29;;;;;;;10.75;9.15;;;18.00;99.90;;;;;;5074386;28;20201;-66
2021/07/28 04:26:57;;;;;;;12.30;8.60;;;18.00;99.90;;;;;;5074368;28;20212;-65
2021/07/28 04:29:25;;;;;;;10.90;8.63;;;18.10;99.90;;;;;;5074516;28;20201;-64
2021/07/28 04:31:53;;;;;;;9.25;8.35;;;18.10;99.90;;;;;;5074505;28;20342;-65
2021/07/28 04:34:22;;;;;;;9.23;8.18;;;18.20;99.90;;;;;;5075148;28;20223;-64
2021/07/28 04:36:50;;;;;;;10.00;7.97;;;18.30;99.90;;;;;;5074778;28;20794;-65
2021/07/28 04:39:18;;;;;;;9.32;7.53;;;18.30;99.90;;;;;;5075313;28;20211;-64
2021/07/28 04:41:46;;;;;;;8.18;7.38;;;18.30;99.90;;;;;;5075073;28;20201;-64
2021/07/28 04:44:14;;;;;;;8.68;7.78;;;18.30;99.90;;;;;;5074696;28;20278;-65
2021/07/28 04:46:42;;;;;;;8.82;7.60;;;18.30;99.90;;;;;;5075456;28;20657;-64
2021/07/28 04:49:09;;;;;;;9.35;8.32;;;18.30;99.90;;;;;;5077575;28;20201;-63
2021/07/28 04:51:38;;;;;;;9.60;8.20;;;18.40;99.90;;;;;;5078364;28;20323;-64
2021/07/28 04:54:06;;;;;;;9.48;8.30;;;18.30;99.90;;;;;;5075479;28;20288;-64
2021/07/28 04:56:34;;;;;;;10.02;7.80;;;18.30;99.90;;;;;;5074418;28;20724;-64
2021/07/28 04:59:02;;;;;;;10.43;8.57;;;18.40;99.90;;;;;;5074549;28;20208;-63
2021/07/28 05:01:30;;;;;;;10.75;8.38;;;18.50;99.90;;;;;;5074521;28;20224;-64
2021/07/28 05:03:58;;;;;;;15.60;8.70;;;18.60;99.90;;;;;;5074488;28;20211;-65
2021/07/28 05:06:26;;;;;;;9.43;8.43;;;18.60;99.90;;;;;;5074419;28;20201;-65
2021/07/28 05:08:55;;;;;;;9.48;7.72;;;18.70;99.90;;;;;;5074208;28;20204;-64
2021/07/28 05:11:23;;;;;;;8.75;7.85;;;18.80;99.90;;;;;;5074413;28;20228;-65
2021/07/28 05:13:51;;;;;;;9.88;7.88;;;18.90;99.90;;;;;;5074264;28;20217;-64
2021/07/28 05:16:19;;;;;;;9.20;8.25;;;18.90;99.90;;;;;;5074351;28;20549;-64
2021/07/28 05:18:47;;;;;;;10.52;8.82;;;19.00;99.90;;;;;;5074036;28;20209;-64
2021/07/28 05:21:15;;;;;;;10.60;9.00;;;19.20;99.90;;;;;;5074271;28;20284;-64
2021/07/28 05:23:44;;;;;;;9.48;8.25;;;19.60;99.90;;;;;;5072251;28;20276;-65
2021/07/28 05:26:13;;;;;;;10.93;7.72;;;19.50;99.90;;;;;;5073805;28;20201;-65
2021/07/28 05:28:41;;;;;;;9.70;8.27;;;19.60;99.90;;;;;;5074026;28;20197;-65
2021/07/28 05:31:09;;;;;;;11.05;8.05;;;19.60;99.90;;;;;;5073862;28;20699;-65
2021/07/28 05:33:37;;;;;;;8.73;7.82;;;19.60;99.90;;;;;;5073811;28;20316;-65
2021/07/28 05:36:05;;;;;;;9.27;8.13;;;19.60;99.90;;;;;;5073961;28;20197;-65
2021/07/28 05:38:33;;;;;;;10.00;7.70;;;19.60;99.90;;;;;;5073774;28;20288;-64
2021/07/28 05:41:02;;;;;;;9.32;8.18;;;19.60;99.90;;;;;;5073716;28;20247;-65
2021/07/28 05:43:32;;;;;;;10.40;7.78;;;19.50;99.90;;;;;;5073260;28;20224;-65
2021/07/28 05:46:00;;;;;;;9.98;8.00;;;19.40;99.90;;;;;;5073745;28;20224;-65
2021/07/28 05:48:31;;;;;;;9.68;7.85;;;19.30;99.90;;;;;;5073379;28;20208;-65
2021/07/28 05:50:59;;;;;;;9.65;7.32;;;19.20;99.90;;;;;;5073849;28;20181;-63
2021/07/28 05:53:27;;;;;;;10.05;7.95;;;19.20;99.90;;;;;;5073200;28;20422;-65
2021/07/28 05:55:55;;;;;;;10.70;8.02;;;19.10;99.90;;;;;;5073471;28;20204;-65
2021/07/28 05:58:23;;;;;;;11.20;8.52;;;19.10;99.90;;;;;;5072862;28;20236;-64
2021/07/28 06:00:52;;;;;;;11.45;8.40;;;19.20;99.90;;;;;;5073322;28;20312;-64
2021/07/28 06:03:20;;;;;;;11.07;7.72;;;19.20;99.90;;;;;;5073128;28;20211;-65
2021/07/28 06:05:48;;;;;;;10.05;7.00;;;19.30;99.90;;;;;;5072877;28;20290;-64
2021/07/28 06:08:16;;;;;;;9.93;7.97;;;19.40;99.90;;;;;;5072957;28;20276;-65
2021/07/28 06:10:46;;;;;;;12.10;7.80;;;19.40;99.90;;;;;;5073314;28;20207;-64
2021/07/28 06:13:14;;;;;;;9.45;8.35;;;19.50;99.90;;;;;;5073097;28;20360;-64
2021/07/28 06:15:42;;;;;;;11.50;7.43;;;19.50;99.90;;;;;;5073181;28;20295;-65
2021/07/28 06:18:11;;;;;;;9.07;7.72;;;19.50;99.90;;;;;;5073127;28;20720;-65
2021/07/28 06:20:39;;;;;;;8.80;7.90;;;19.70;99.90;;;;;;5072790;28;20554;-65
2021/07/28 06:23:07;;;;;;;13.07;8.90;;;19.70;99.90;;;;;;5072715;28;20303;-65
2021/07/28 06:25:35;;;;;;;9.63;8.30;;;19.60;99.90;;;;;;5072780;28;20211;-65
2021/07/28 06:28:03;;;;;;;9.75;8.75;;;19.60;99.90;;;;;;5073055;28;20300;-65
2021/07/28 06:30:31;;;;;;;9.30;8.05;;;19.60;99.90;;;;;;5072924;28;20229;-65
2021/07/28 06:32:59;;;;;;;9.32;8.07;;;19.50;99.90;;;;;;5072824;28;20217;-64
2021/07/28 06:35:28;;;;;;;11.43;8.38;;;19.50;99.90;;;;;;5072590;28;20197;-65
2021/07/28 06:37:56;;;;;;;11.63;8.57;;;19.50;99.90;;;;;;5072869;28;20200;-64
2021/07/28 06:40:24;;;;;;;9.63;8.63;;;19.60;99.90;;;;;;5072565;28;20300;-65
2021/07/28 06:42:51;;;;;;;9.88;8.80;;;19.90;99.90;;;;;;5072787;28;20292;-65
2021/07/28 06:45:19;;;;;;;10.45;8.38;;;20.20;99.90;;;;;;5072796;28;20187;-66
2021/07/28 06:47:47;;;;;;;9.10;8.05;;;20.30;99.90;;;;;;5072892;28;20204;-66
2021/07/28 06:50:15;;;;;;;10.73;8.40;;;20.40;99.90;;;;;;5072481;28;20720;-66
2021/07/28 06:52:44;;;;;;;8.50;7.60;;;20.60;99.90;;;;;;5072582;28;22171;-65
2021/07/28 06:55:12;;;;;;;9.30;7.18;;;20.80;99.90;;;;;;5072688;28;20196;-65
2021/07/28 06:57:40;;;;;;;10.00;7.30;;;21.30;99.90;;;;;;5072158;28;20291;-65
2021/07/28 07:00:08;;;;;;;8.38;7.25;;;21.60;99.90;;;;;;5072265;28;20200;-66
2021/07/28 07:02:36;;;;;;;7.75;6.20;;;22.00;99.90;;;;;;5072837;28;20296;-65
2021/07/28 07:05:05;;;;;;;9.15;6.20;;;22.20;99.90;;;;;;5072726;28;20242;-66
2021/07/28 07:07:33;;;;;;;8.02;6.07;;;22.30;99.90;;;;;;5072343;28;20240;-63
2021/07/28 07:10:05;;;;;;;5.85;5.25;;;22.20;99.90;;;;;;5071285;28;20251;-65
2021/07/28 07:12:32;;;;;;;6.53;5.68;;;22.00;99.90;;;;;;5071520;28;20593;-63
2021/07/28 07:15:00;;;;;;;6.97;6.15;;;21.70;99.90;;;;;;5072017;28;20224;-63
2021/07/28 07:17:29;;;;;;;8.55;5.47;;;21.60;99.90;;;;;;5072586;28;20203;-64
2021/07/28 07:19:58;;;;;;;6.65;5.97;;;21.50;99.90;;;;;;5072329;28;20204;-64
2021/07/28 07:22:26;;;;;;;8.27;6.82;;;21.60;99.90;;;;;;5072591;28;20232;-63
2021/07/28 07:24:53;;;;;;;6.50;5.90;;;21.70;99.90;;;;;;5072401;28;20696;-63
2021/07/28 07:27:23;;;;;;;7.28;5.50;;;21.70;99.90;;;;;;5072764;28;20201;-63
2021/07/28 07:29:50;;;;;;;6.47;5.45;;;21.70;99.90;;;;;;5072344;28;20213;-63
2021/07/28 07:32:22;;;;;;;9.27;5.65;;;21.70;99.90;;;;;;5071693;28;20250;-64
2021/07/28 07:34:50;;;;;;;5.40;4.80;;;21.80;99.90;;;;;;5072092;28;20228;-63
2021/07/28 07:37:18;;;;;;;7.25;4.80;;;21.90;99.90;;;;;;5072334;28;20204;-63
2021/07/28 07:39:46;;;;;;;6.10;4.90;;;21.90;99.90;;;;;;5072129;28;20204;-63
2021/07/28 07:42:14;;;;;;;7.53;4.65;;;21.90;99.90;;;;;;5071984;28;20784;-64
2021/07/28 07:44:45;;;;;;;4.75;4.35;;;21.80;99.90;;;;;;5071761;28;20578;-65
2021/07/28 07:47:13;;;;;;;6.47;5.30;;;22.00;99.90;;;;;;5074957;28;20296;-63
2021/07/28 07:49:41;;;;;;;5.35;4.70;;;21.90;99.90;;;;;;5075646;28;20299;-63
2021/07/28 07:52:09;;;;;;;5.40;4.85;;;22.00;99.90;;;;;;5075783;28;20204;-64
2021/07/28 07:54:36;;;;;;;5.03;4.53;;;22.00;99.90;;;;;;5075170;28;20230;-63
2021/07/28 07:57:05;;;;;;;5.15;4.60;;;22.10;99.90;;;;;;5075842;28;20200;-63
2021/07/28 07:59:32;;;;;;;5.18;4.68;;;22.00;99.90;;;;;;5075240;28;20292;-63
2021/07/28 08:02:02;;;;;;;5.60;5.10;;;22.10;99.90;;;;;;5075673;28;20581;-63
2021/07/28 08:04:30;;;;;;;6.22;4.65;;;22.10;99.90;;;;;;5075312;28;20599;-63
2021/07/28 08:06:58;;;;;;;7.97;4.82;;;22.20;99.90;;;;;;5075665;28;20203;-63
2021/07/28 08:09:25;;;;;;;5.30;4.70;;;22.20;99.90;;;;;;5075416;28;20284;-63
2021/07/28 08:11:54;;;;;;;4.65;4.15;;;22.20;99.90;;;;;;5075320;28;20296;-64
2021/07/28 08:14:22;;;;;;;5.82;4.70;;;22.10;99.90;;;;;;5075507;28;20266;-63
2021/07/28 08:16:50;;;;;;;4.90;4.38;;;22.00;99.90;;;;;;5075505;28;20204;-63
2021/07/28 08:19:19;;;;;;;6.18;4.78;;;21.80;99.90;;;;;;5075550;28;20200;-64
2021/07/28 08:21:47;;;;;;;6.07;5.10;;;21.70;99.90;;;;;;5075343;28;20200;-63
2021/07/28 08:24:16;;;;;;;5.43;4.93;;;21.70;99.90;;;;;;5074816;28;20240;-63
2021/07/28 08:26:44;;;;;;;5.80;4.80;;;21.60;99.90;;;;;;5075422;28;20197;-63
2021/07/28 08:29:12;;;;;;;7.35;4.80;;;21.60;99.90;;;;;;5075383;28;20204;-62
2021/07/28 08:31:42;;;;;;;12.75;4.65;;;21.60;99.90;;;;;;5075381;28;20192;-62
2021/07/28 08:34:10;;;;;;;5.57;4.30;;;21.70;99.90;;;;;;5075023;28;20750;-63
2021/07/28 08:36:39;;;;;;;5.30;4.75;;;21.80;99.90;;;;;;5075206;28;20231;-63
2021/07/28 08:39:07;;;;;;;6.28;4.75;;;21.90;99.90;;;;;;5074687;28;20292;-64
2021/07/28 08:41:38;;;;;;;5.18;4.47;;;22.00;99.90;;;;;;5074908;28;20219;-63
2021/07/28 08:44:06;;;;;;;5.85;4.95;;;22.10;99.90;;;;;;5074490;28;20311;-63
2021/07/28 08:46:34;;;;;;;6.53;5.57;;;22.20;99.90;;;;;;5074849;28;20196;-63
2021/07/28 08:49:03;;;;;;;5.45;4.78;;;22.50;99.90;;;;;;5074846;28;20231;-63
2021/07/28 08:51:31;;;;;;;5.60;4.47;;;22.70;99.90;;;;;;5074554;28;20672;-64
2021/07/28 08:54:03;;;;;;;4.72;4.25;;;22.80;99.90;;;;;;5074254;28;20665;-64
2021/07/28 08:56:31;;;;;;;4.72;4.15;;;22.90;99.90;;;;;;5074174;28;20296;-63
2021/07/28 08:58:59;;;;;;;5.05;4.45;;;23.10;99.90;;;;;;5074490;28;20690;-63
2021/07/28 09:01:27;;;;;;;5.07;4.57;;;23.20;99.90;;;;;;5074624;28;20205;-63
2021/07/28 09:03:55;;;;;;;5.15;4.28;;;23.40;99.90;;;;;;5074422;28;20200;-63
2021/07/28 09:06:32;;;;;;;4.50;3.92;;;23.50;99.90;;;;;;5074533;28;20205;-64
2021/07/28 09:09:02;;;;;;;5.47;3.70;;;23.40;99.90;;;;;;5074518;28;20184;-63
2021/07/28 09:11:31;;;;;;;5.45;4.10;;;23.40;99.90;;;;;;5074835;28;20539;-63
2021/07/28 09:14:16;;;;;;;4.95;3.88;;;23.40;99.90;;;;;;5068170;28;20200;-63
2021/07/28 09:16:44;;;;;;;6.85;4.05;;;23.50;99.90;;;;;;5074445;28;20191;-62
2021/07/28 09:19:12;;;;;;;4.85;3.60;;;23.60;99.90;;;;;;5074392;28;20201;-63
2021/07/28 09:21:40;;;;;;;6.30;4.22;;;23.50;99.90;;;;;;5073941;28;20204;-63
2021/07/28 09:24:11;;;;;;;4.95;3.80;;;23.40;99.90;;;;;;5074036;28;20192;-63
2021/07/28 09:26:43;;;;;;;4.07;3.65;;;23.40;99.90;;;;;;5069710;28;20232;-62
2021/07/28 09:29:13;;;;;;;4.93;3.95;;;23.70;99.90;;;;;;5066612;28;20239;-63
2021/07/28 09:31:44;;;;;;;6.50;3.95;;;23.80;99.90;;;;;;5074006;28;20193;-63
2021/07/28 09:34:32;;;;;;;5.60;3.88;;;23.90;99.90;;;;;;5054011;28;20304;-63
2021/07/28 09:37:01;;;;;;;7.47;4.47;;;24.00;99.90;;;;;;5062467;28;20193;-63
2021/07/28 09:39:31;;;;;;;5.30;3.83;;;24.00;99.90;;;;;;5073507;28;20649;-63
2021/07/28 09:42:07;;;;;;;4.97;4.10;;;24.00;99.90;;;;;;5074001;28;20532;-63
2021/07/28 09:44:35;;;;;;;6.38;4.40;;;24.10;99.90;;;;;;5073497;28;20745;-63
2021/07/28 09:47:06;;;;;;;6.88;4.55;;;24.10;99.90;;;;;;5073866;28;20207;-63
2021/07/28 09:49:35;;;;;;;5.63;3.70;;;24.30;99.90;;;;;;5074013;28;20288;-63
2021/07/28 09:52:20;;;;;;;3.95;3.65;;;24.50;99.90;;;;;;5073687;28;20200;-61
2021/07/28 09:54:49;;;;;;;4.32;3.92;;;24.70;99.90;;;;;;5073446;28;20204;-62
2021/07/28 09:57:23;;;;;;;4.20;3.80;;;24.80;99.90;;;;;;5073704;28;20249;-63
2021/07/28 09:59:53;;;;;;;6.78;3.72;;;24.70;99.90;;;;;;5073220;28;20188;-63
2021/07/28 10:02:23;;;;;;;4.18;3.78;;;24.60;99.90;;;;;;5073255;28;20193;-62
2021/07/28 10:04:54;;;;;;;4.72;4.10;;;24.70;99.90;;;;;;5073596;28;20181;-63
2021/07/28 10:07:24;;;;;;;4.45;3.88;;;24.70;99.90;;;;;;5073539;28;20188;-63
2021/07/28 10:09:58;;;;;;;4.55;4.00;;;24.70;99.90;;;;;;5072805;28;20299;-63
2021/07/28 10:12:28;;;;;;;5.45;3.75;;;25.00;99.90;;;;;;5073306;28;20184;-63
2021/07/28 10:14:57;;;;;;;5.55;4.10;;;25.10;99.90;;;;;;5073268;28;20207;-63
2021/07/28 10:17:25;;;;;;;5.07;3.85;;;25.20;99.90;;;;;;5073140;28;20596;-63
2021/07/28 10:19:53;;;;;;;4.00;3.65;;;25.20;99.90;;;;;;5073299;28;20197;-63
2021/07/28 10:22:31;;;;;;;4.10;3.70;;;25.30;99.90;;;;;;5073069;28;20648;-62
2021/07/28 10:25:00;;;;;;;5.28;3.45;;;25.30;99.90;;;;;;5073173;28;20247;-62
2021/07/28 10:27:30;;;;;;;4.72;3.67;;;25.50;99.90;;;;;;5073005;28;20205;-63
2021/07/28 10:29:58;;;;;;;5.25;4.20;;;25.40;99.90;;;;;;5073057;28;20223;-63
2021/07/28 10:32:30;;;;;;;7.10;3.90;;;25.40;99.90;;;;;;5073121;28;20291;-63
2021/07/28 10:35:22;;;;;;;4.28;3.90;;;25.60;99.90;;;;;;5073066;28;20216;-63
2021/07/28 10:37:50;;;;;;;6.65;4.00;;;25.30;99.90;;;;;;5072907;28;20216;-63
2021/07/28 10:40:59;;;;;;;5.70;3.90;;;25.20;99.90;;;;;;5072577;28;20296;-63
2021/07/28 10:43:28;;;;;;;6.22;3.95;;;25.20;99.90;;;;;;5072631;28;20229;-63
2021/07/28 10:45:58;;;;;;;4.07;3.78;;;25.10;99.90;;;;;;5072630;28;20200;-63
2021/07/28 10:48:56;;;;;;;5.32;3.67;;;25.20;99.90;;;;;;5072512;28;20211;-63
2021/07/28 10:51:53;;;;;;;3.85;3.33;;;25.10;99.90;;;;;;5010078;28;20226;-62
2021/07/28 10:54:55;;;;;;;3.90;3.60;;;25.10;99.90;;;;;;5070939;28;20204;-63
2021/07/28 10:58:05;;;;;;;4.68;3.65;;;25.50;99.90;;;;;;5072706;28;20184;-63
2021/07/28 11:01:08;;;;;;;4.85;4.30;;;25.70;99.90;;;;;;5072658;28;20295;-63
2021/07/28 11:03:37;;;;;;;4.18;3.78;;;25.40;99.90;;;;;;5072596;28;20195;-63
2021/07/28 11:06:24;;;;;;;4.05;3.72;;;25.40;99.90;;;;;;5072583;28;20197;-62
2021/07/28 11:08:54;;;;;;;4.80;3.72;;;25.60;99.90;;;;;;5072559;28;20232;-62
2021/07/28 11:11:33;;;;;;;4.57;3.78;;;25.90;99.90;;;;;;5072271;28;20189;-62
2021/07/28 11:14:02;;;;;;;4.20;3.50;;;25.90;99.90;;;;;;5072238;28;20189;-63
2021/07/28 11:16:32;;;;;;;5.22;3.80;;;25.80;99.90;;;;;;5072270;28;20740;-63
2021/07/28 11:19:00;;;;;;;5.38;3.85;;;25.70;99.90;;;;;;5072846;28;20211;-63
2021/07/28 11:21:29;;;;;;;4.18;3.47;;;25.80;99.90;;;;;;5075660;28;20651;-63
2021/07/28 11:24:04;;;;;;;3.92;3.50;;;25.90;99.90;;;;;;5076452;28;20210;-62
2021/07/28 11:26:34;;;;;;;6.10;3.30;;;26.00;99.90;;;;;;5076569;28;20187;-63
2021/07/28 11:29:06;;;;;;;4.15;3.30;;;26.00;99.90;;;;;;5076181;28;20199;-63
2021/07/28 11:31:37;;;;;;;5.00;3.45;;;26.10;99.90;;;;;;5076443;28;20189;-64
2021/07/28 11:34:11;;;;;;;3.75;3.45;;;26.10;99.90;;;;;;5076409;28;20185;-62
2021/07/28 11:36:40;;;;;;;4.18;3.20;;;26.10;99.90;;;;;;5076101;28;20223;-63
2021/07/28 11:39:13;;;;;;;3.67;3.30;;;26.10;99.90;;;;;;5076115;28;20197;-63
2021/07/28 11:41:41;;;;;;;3.72;3.42;;;26.00;99.90;;;;;;5076148;28;20219;-62
2021/07/28 11:44:09;;;;;;;4.07;3.47;;;26.00;99.90;;;;;;5075776;28;20237;-62
2021/07/28 11:46:38;;;;;;;3.90;3.53;;;26.00;99.90;;;;;;5076254;28;20207;-63
2021/07/28 11:49:07;;;;;;;4.07;3.70;;;26.00;99.90;;;;;;5076114;28;20236;-61
2021/07/28 11:51:38;;;;;;;3.67;3.38;;;26.00;99.90;;;;;;5076126;28;20271;-62
2021/07/28 11:54:09;;;;;;;5.38;3.80;;;26.10;99.90;;;;;;5075609;28;20201;-62
2021/07/28 11:56:37;;;;;;;4.40;3.95;;;26.00;99.90;;;;;;5075995;28;20219;-62
2021/07/28 11:59:05;;;;;;;4.70;3.67;;;26.10;99.90;;;;;;5075570;28;20203;-63
2021/07/28 12:01:34;;;;;;;5.18;4.10;;;26.10;99.90;;;;;;5075678;28;20227;-63
2021/07/28 12:04:08;;;;;;;4.10;3.70;;;26.00;99.90;;;;;;5076063;28;20213;-63
2021/07/28 12:06:37;;;;;;;4.15;3.80;;;25.80;99.90;;;;;;5075570;28;20181;-63
2021/07/28 12:09:10;;;;;;;4.40;3.97;;;25.70;99.90;;;;;;5075624;28;20200;-63
2021/07/28 12:11:55;;;;;;;4.40;3.78;;;25.70;99.90;;;;;;5075669;28;20189;-63
2021/07/28 12:14:28;;;;;;;4.05;3.65;;;25.60;99.90;;;;;;5075507;28;20213;-63
2021/07/28 12:16:57;;;;;;;5.22;3.75;;;25.70;99.90;;;;;;5075477;28;20212;-62
2021/07/28 12:19:29;;;;;;;3.78;3.38;;;25.90;99.90;;;;;;5075594;28;20258;-63
2021/07/28 12:22:02;;;;;;;4.03;3.65;;;25.70;99.90;;;;;;5075424;28;20192;-63
2021/07/28 12:24:35;;;;;;;4.10;3.70;;;25.70;99.90;;;;;;5075356;28;20283;-63
2021/07/28 12:27:35;;;;;;;5.18;3.72;;;25.70;99.90;;;;;;5075347;28;20201;-63
2021/07/28 12:30:07;;;;;;;4.30;3.83;;;25.80;99.90;;;;;;5041931;28;20203;-62
2021/07/28 12:32:36;;;;;;;5.40;3.70;;;25.90;99.90;;;;;;5074706;28;20181;-63
2021/07/28 12:35:26;;;;;;;4.10;3.80;;;25.80;99.90;;;;;;5075289;28;20201;-63
2021/07/28 12:38:11;;;;;;;5.15;3.90;;;25.70;99.90;;;;;;5075233;28;20294;-64
2021/07/28 12:40:42;;;;;;;4.78;3.63;;;25.80;99.90;;;;;;5075064;28;20185;-63
2021/07/28 12:43:10;;;;;;;4.43;3.20;;;25.70;99.90;;;;;;5074912;28;20323;-62
2021/07/28 12:45:39;;;;;;;3.85;3.40;;;25.80;99.90;;;;;;5075000;28;20196;-63
2021/07/28 12:48:08;;;;;;;5.07;3.72;;;25.90;99.90;;;;;;5075011;28;20200;-63
2021/07/28 12:50:39;;;;;;;3.83;3.50;;;25.70;99.90;;;;;;5074962;28;20197;-63
2021/07/28 12:53:08;;;;;;;3.90;3.60;;;25.60;99.90;;;;;;5074950;28;20185;-63
2021/07/28 12:55:36;;;;;;;5.05;3.90;;;25.50;99.90;;;;;;5074753;28;20197;-62
2021/07/28 12:58:05;;;;;;;3.78;3.13;;;25.30;99.90;;;;;;5074742;28;20281;-62
2021/07/28 13:00:34;;;;;;;4.70;3.47;;;25.30;99.90;;;;;;5074639;28;20205;-63
2021/07/28 13:03:05;;;;;;;3.78;3.47;;;25.40;99.90;;;;;;5074778;28;20204;-63